createdAt,value
2016-07-02T00:00:55.565Z,16.58
2016-07-02T00:01:55.616Z,16.55
2016-07-02T00:02:55.597Z,16.59
2016-07-02T00:03:55.524Z,16.55
2016-07-02T00:04:55.516Z,16.54
2016-07-02T00:05:55.603Z,16.55
2016-07-02T00:06:55.537Z,16.57
2016-07-02T00:07:55.569Z,16.55
2016-07-02T00:08:55.525Z,16.62
2016-07-02T00:09:55.475Z,16.49
2016-07-02T00:10:55.604Z,16.59
2016-07-02T00:11:55.595Z,16.54
2016-07-02T00:12:55.565Z,16.57
2016-07-02T00:13:55.537Z,16.47
2016-07-02T00:14:55.618Z,16.49
2016-07-02T00:15:55.487Z,16.47
2016-07-02T00:16:55.536Z,16.4
2016-07-02T00:17:55.598Z,16.49
2016-07-02T00:18:55.553Z,16.42
2016-07-02T00:19:55.636Z,16.4
2016-07-02T00:20:55.584Z,16.37
2016-07-02T00:21:55.552Z,16.37
2016-07-02T00:22:55.635Z,16.37
2016-07-02T00:23:55.600Z,16.37
2016-07-02T00:24:55.519Z,16.37
2016-07-02T00:25:55.588Z,16.37
2016-07-02T00:26:55.551Z,16.34
2016-07-02T00:27:55.681Z,16.37
2016-07-02T00:28:55.578Z,16.27
2016-07-02T00:29:55.568Z,16.21
2016-07-02T00:30:55.610Z,16.22
2016-07-02T00:31:55.563Z,16.18
2016-07-02T00:32:55.572Z,16.26
2016-07-02T00:33:55.644Z,16.17
2016-07-02T00:34:55.585Z,16.17
2016-07-02T00:35:55.595Z,16.25
2016-07-02T00:36:55.634Z,16.17
2016-07-02T00:37:55.646Z,16.27
2016-07-02T00:38:55.652Z,16.21
2016-07-02T00:39:55.663Z,16.26
2016-07-02T00:40:55.586Z,16.17
2016-07-02T00:41:55.639Z,16.29
2016-07-02T00:42:55.642Z,16.18
2016-07-02T00:43:55.609Z,16.26
2016-07-02T00:44:55.579Z,16.07
2016-07-02T00:45:55.684Z,16.08
2016-07-02T00:46:55.645Z,16.32
2016-07-02T00:47:55.673Z,16.25
2016-07-02T00:48:55.659Z,16.14
2016-07-02T00:49:55.549Z,16.16
2016-07-02T00:50:55.660Z,16.25
2016-07-02T00:51:55.529Z,16.27
2016-07-02T00:52:55.685Z,16.27
2016-07-02T00:53:55.614Z,16.1
2016-07-02T00:54:55.637Z,16.11
2016-07-02T00:55:55.632Z,16.16
2016-07-02T00:56:55.669Z,16.07
2016-07-02T00:57:55.709Z,16.17
2016-07-02T00:58:55.724Z,16.08
2016-07-02T00:59:55.648Z,16.07
2016-07-02T01:00:55.642Z,16.06
2016-07-02T01:01:55.651Z,15.92
2016-07-02T01:02:55.670Z,15.99
2016-07-02T01:03:55.625Z,16
2016-07-02T01:04:55.713Z,16.02
2016-07-02T01:05:55.694Z,15.95
2016-07-02T01:06:55.667Z,15.89
2016-07-02T01:07:55.725Z,15.93
2016-07-02T01:08:55.712Z,15.91
2016-07-02T01:09:55.683Z,15.96
2016-07-02T01:10:55.658Z,15.96
2016-07-02T01:11:55.658Z,15.92
2016-07-02T01:12:55.612Z,15.92
2016-07-02T01:13:55.672Z,15.95
2016-07-02T01:14:55.673Z,15.92
2016-07-02T01:15:55.739Z,15.92
2016-07-02T01:16:55.764Z,15.91
2016-07-02T01:17:55.641Z,15.93
2016-07-02T01:18:55.745Z,15.88
2016-07-02T01:19:55.724Z,15.93
2016-07-02T01:20:55.761Z,15.92
2016-07-02T01:21:55.727Z,15.93
2016-07-02T01:22:55.758Z,15.91
2016-07-02T01:23:55.687Z,15.92
2016-07-02T01:24:55.774Z,15.93
2016-07-02T01:25:55.781Z,15.92
2016-07-02T01:26:55.692Z,15.88
2016-07-02T01:27:55.733Z,15.91
2016-07-02T01:28:55.676Z,15.93
2016-07-02T01:29:55.774Z,15.91
2016-07-02T01:30:55.743Z,15.95
2016-07-02T01:31:55.667Z,15.91
2016-07-02T01:32:55.700Z,15.95
2016-07-02T01:33:55.743Z,15.92
2016-07-02T01:34:55.679Z,15.84
2016-07-02T01:35:55.653Z,15.78
2016-07-02T01:36:55.732Z,15.84
2016-07-02T01:37:55.752Z,15.77
2016-07-02T01:38:55.733Z,15.88
2016-07-02T01:39:55.792Z,15.77
2016-07-02T01:40:55.738Z,15.8
2016-07-02T01:41:55.698Z,15.67
2016-07-02T01:42:55.776Z,15.63
2016-07-02T01:43:55.754Z,15.63
2016-07-02T01:44:55.793Z,15.62
2016-07-02T01:45:55.788Z,15.58
2016-07-02T01:46:55.820Z,15.56
2016-07-02T01:47:55.763Z,15.55
2016-07-02T01:48:55.774Z,15.53
2016-07-02T01:49:55.818Z,15.44
2016-07-02T01:50:55.741Z,15.47
2016-07-02T01:51:55.801Z,15.47
2016-07-02T01:52:55.724Z,15.44
2016-07-02T01:53:55.763Z,15.44
2016-07-02T01:54:55.686Z,15.45
2016-07-02T01:55:55.777Z,15.43
2016-07-02T01:56:55.800Z,15.35
2016-07-02T01:57:55.843Z,15.45
2016-07-02T01:58:55.853Z,15.31
2016-07-02T01:59:55.860Z,15.4
2016-07-02T02:00:55.818Z,15.27
2016-07-02T02:01:55.783Z,15.38
2016-07-02T02:02:55.867Z,15.37
2016-07-02T02:03:55.793Z,15.38
2016-07-02T02:04:55.944Z,15.37
2016-07-02T02:05:55.787Z,15.3
2016-07-02T02:06:55.800Z,15.27
2016-07-02T02:07:55.731Z,15.26
2016-07-02T02:08:55.791Z,15.23
2016-07-02T02:09:55.797Z,15.23
2016-07-02T02:10:55.871Z,15.26
2016-07-02T02:11:55.836Z,15.26
2016-07-02T02:12:55.805Z,15.33
2016-07-02T02:13:55.726Z,15.35
2016-07-02T02:14:55.900Z,15.27
2016-07-02T02:15:55.876Z,15.18
2016-07-02T02:16:55.884Z,15.27
2016-07-02T02:17:55.853Z,15.18
2016-07-02T02:18:55.779Z,15.23
2016-07-02T02:19:55.872Z,15.26
2016-07-02T02:20:55.819Z,15.2
2016-07-02T02:21:55.851Z,15.18
2016-07-02T02:22:55.784Z,15.23
2016-07-02T02:23:55.834Z,15.2
2016-07-02T02:24:55.824Z,15.16
2016-07-02T02:25:55.910Z,15.25
2016-07-02T02:26:55.776Z,15.27
2016-07-02T02:27:55.794Z,15.2
2016-07-02T02:28:55.895Z,15.18
2016-07-02T02:29:55.876Z,15.25
2016-07-02T02:30:55.790Z,15.22
2016-07-02T02:31:55.851Z,15.22
2016-07-02T02:32:55.953Z,15.18
2016-07-02T02:33:55.776Z,15.18
2016-07-02T02:34:55.934Z,15.31
2016-07-02T02:35:55.805Z,15.25
2016-07-02T02:36:55.928Z,15.22
2016-07-02T02:37:55.827Z,15.18
2016-07-02T02:38:55.909Z,15.19
2016-07-02T02:39:55.912Z,15.23
2016-07-02T02:40:55.910Z,15.23
2016-07-02T02:41:55.904Z,15.16
2016-07-02T02:42:55.871Z,15.22
2016-07-02T02:43:55.953Z,15.27
2016-07-02T02:44:55.823Z,15.13
2016-07-02T02:45:55.811Z,15.1
2016-07-02T02:46:55.873Z,15.16
2016-07-02T02:47:55.815Z,15.12
2016-07-02T02:48:55.994Z,15
2016-07-02T02:49:55.929Z,14.97
2016-07-02T02:50:55.880Z,14.85
2016-07-02T02:51:55.811Z,14.87
2016-07-02T02:52:55.925Z,14.75
2016-07-02T02:53:55.908Z,14.69
2016-07-02T02:54:55.946Z,14.64
2016-07-02T02:55:55.903Z,14.59
2016-07-02T02:56:55.992Z,14.46
2016-07-02T02:57:55.925Z,14.46
2016-07-02T02:58:55.979Z,14.45
2016-07-02T02:59:56.002Z,14.57
2016-07-02T03:00:55.937Z,14.38
2016-07-02T03:01:55.830Z,14.42
2016-07-02T03:02:55.941Z,14.41
2016-07-02T03:03:55.991Z,14.31
2016-07-02T03:04:55.920Z,14.42
2016-07-02T03:05:55.924Z,14.3
2016-07-02T03:06:56.010Z,14.23
2016-07-02T03:07:55.915Z,14.27
2016-07-02T03:08:55.959Z,14.27
2016-07-02T03:09:55.970Z,14.23
2016-07-02T03:10:55.934Z,14.15
2016-07-02T03:11:55.864Z,14.11
2016-07-02T03:12:55.927Z,14.08
2016-07-02T03:13:55.958Z,14.12
2016-07-02T03:14:56.023Z,14.05
2016-07-02T03:15:55.978Z,14.02
2016-07-02T03:16:55.872Z,14.09
2016-07-02T03:17:56.036Z,14.08
2016-07-02T03:18:56.032Z,14.02
2016-07-02T03:19:55.995Z,14.03
2016-07-02T03:20:56.064Z,14.03
2016-07-02T03:21:56.044Z,13.97
2016-07-02T03:22:55.911Z,13.94
2016-07-02T03:23:56.058Z,13.9
2016-07-02T03:24:56.040Z,13.93
2016-07-02T03:25:56.042Z,13.84
2016-07-02T03:26:56.007Z,13.81
2016-07-02T03:27:56.007Z,13.86
2016-07-02T03:28:56.050Z,13.91
2016-07-02T03:29:56.005Z,13.73
2016-07-02T03:30:56.067Z,13.79
2016-07-02T03:31:56.051Z,13.83
2016-07-02T03:32:55.979Z,13.84
2016-07-02T03:33:55.954Z,13.87
2016-07-02T03:34:56.048Z,13.84
2016-07-02T03:35:56.085Z,13.86
2016-07-02T03:36:56.029Z,13.81
2016-07-02T03:37:56.058Z,13.79
2016-07-02T03:38:56.019Z,13.81
2016-07-02T03:39:55.998Z,13.7
2016-07-02T03:40:56.073Z,13.72
2016-07-02T03:41:56.009Z,13.69
2016-07-02T03:42:56.045Z,13.73
2016-07-02T03:43:55.949Z,13.81
2016-07-02T03:44:56.037Z,13.73
2016-07-02T03:45:55.973Z,13.73
2016-07-02T03:46:56.044Z,13.76
2016-07-02T03:47:55.976Z,13.73
2016-07-02T03:48:56.069Z,13.75
2016-07-02T03:49:55.980Z,13.75
2016-07-02T03:50:56.056Z,13.73
2016-07-02T03:51:56.024Z,13.76
2016-07-02T03:52:56.028Z,13.75
2016-07-02T03:53:55.956Z,13.75
2016-07-02T03:54:56.043Z,13.78
2016-07-02T03:55:56.086Z,13.7
2016-07-02T03:56:56.038Z,13.66
2016-07-02T03:57:56.031Z,13.72
2016-07-02T04:06:39.873Z,13.69
2016-07-02T04:07:39.830Z,13.78
2016-07-02T04:08:39.881Z,13.79
2016-07-02T04:09:39.834Z,13.75
2016-07-02T04:10:39.909Z,13.72
2016-07-02T04:11:39.915Z,13.72
2016-07-02T04:12:39.965Z,13.7
2016-07-02T04:13:39.898Z,13.73
2016-07-02T04:14:39.925Z,13.76
2016-07-02T04:15:39.855Z,13.73
2016-07-02T04:16:39.861Z,13.75
2016-07-02T04:17:39.937Z,13.68
2016-07-02T04:18:39.989Z,13.65
2016-07-02T04:19:39.924Z,13.72
2016-07-02T04:20:39.949Z,13.75
2016-07-02T04:21:39.986Z,13.65
2016-07-02T04:22:39.911Z,13.72
2016-07-02T04:23:39.948Z,13.73
2016-07-02T04:24:39.926Z,13.7
2016-07-02T04:25:39.873Z,13.72
2016-07-02T04:26:39.878Z,13.69
2016-07-02T04:27:39.970Z,13.68
2016-07-02T04:28:39.916Z,13.68
2016-07-02T04:29:39.997Z,13.72
2016-07-02T04:30:39.976Z,13.69
2016-07-02T04:43:40.471Z,13.72
2016-07-02T04:43:47.492Z,13.68
2016-07-02T04:44:47.487Z,13.73
2016-07-02T04:45:47.520Z,13.7
2016-07-02T04:46:47.493Z,13.7
2016-07-02T04:47:47.492Z,13.68
2016-07-02T04:48:47.467Z,13.73
2016-07-02T04:49:47.580Z,13.69
2016-07-02T04:50:47.605Z,13.7
2016-07-02T04:51:47.540Z,13.76
2016-07-02T04:52:47.493Z,13.79
2016-07-02T04:53:47.488Z,13.72
2016-07-02T04:54:47.507Z,13.69
2016-07-02T05:05:44.001Z,13.7
2016-07-02T05:06:44.060Z,13.65
2016-07-02T05:07:44.054Z,13.65
2016-07-02T05:08:43.984Z,13.66
2016-07-02T05:09:43.999Z,13.7
2016-07-02T05:10:43.972Z,13.75
2016-07-02T05:11:44.016Z,13.69
2016-07-02T05:12:44.066Z,13.75
2016-07-02T05:13:44.006Z,13.69
2016-07-02T05:14:44.048Z,13.78
2016-07-02T05:15:43.981Z,13.81
2016-07-02T05:16:44.025Z,13.84
2016-07-02T05:17:44.002Z,13.84
2016-07-02T05:18:44.078Z,13.88
2016-07-02T05:19:43.942Z,13.83
2016-07-02T05:20:44.034Z,13.81
2016-07-02T05:21:44.043Z,13.86
2016-07-02T05:22:43.985Z,13.87
2016-07-02T05:23:43.998Z,13.86
2016-07-02T05:24:44.074Z,13.95
2016-07-02T05:25:44.037Z,13.91
2016-07-02T05:26:44.011Z,13.97
2016-07-02T05:27:44.030Z,13.95
2016-07-02T05:28:44.138Z,13.97
2016-07-02T05:29:44.019Z,13.99
2016-07-02T05:30:44.099Z,14.01
2016-07-02T05:31:44.091Z,13.91
2016-07-02T05:32:44.117Z,13.93
2016-07-02T05:33:44.113Z,13.88
2016-07-02T05:34:44.076Z,13.93
2016-07-02T05:35:44.043Z,13.88
2016-07-02T05:36:43.961Z,13.93
2016-07-02T05:37:44.064Z,13.88
2016-07-02T05:38:44.016Z,13.88
2016-07-02T05:39:44.088Z,13.91
2016-07-02T05:40:44.048Z,13.81
2016-07-02T05:41:44.047Z,13.88
2016-07-02T05:42:44.059Z,13.87
2016-07-02T05:43:44.059Z,13.9
2016-07-02T05:44:44.098Z,13.86
2016-07-02T05:45:44.132Z,13.87
2016-07-02T05:46:44.076Z,13.91
2016-07-02T05:47:44.002Z,13.94
2016-07-02T05:48:44.142Z,13.83
2016-07-02T05:49:44.063Z,13.86
2016-07-02T05:50:44.100Z,13.87
2016-07-02T05:51:44.119Z,13.83
2016-07-02T05:52:44.183Z,13.81
2016-07-02T05:53:44.075Z,13.86
2016-07-02T05:54:44.088Z,13.95
2016-07-02T05:55:44.167Z,13.93
2016-07-02T05:56:44.092Z,13.91
2016-07-02T05:57:44.062Z,13.9
2016-07-02T05:58:44.131Z,14.02
2016-07-02T05:59:44.167Z,13.93
2016-07-02T06:00:44.174Z,13.94
2016-07-02T06:01:44.164Z,13.94
2016-07-02T06:02:44.133Z,13.87
2016-07-02T06:03:44.142Z,13.87
2016-07-02T06:04:44.263Z,13.87
2016-07-02T06:05:44.063Z,13.97
2016-07-02T06:06:44.108Z,13.86
2016-07-02T06:07:44.149Z,13.84
2016-07-02T06:08:44.251Z,13.9
2016-07-02T06:09:44.143Z,14.02
2016-07-02T06:10:44.148Z,14.02
2016-07-02T06:11:44.185Z,13.95
2016-07-02T06:12:44.168Z,14.01
2016-07-02T06:13:44.101Z,13.94
2016-07-02T06:14:44.183Z,13.94
2016-07-02T06:15:44.202Z,14.01
2016-07-02T06:16:44.126Z,14.02
2016-07-02T06:17:44.211Z,14.03
2016-07-02T06:18:44.198Z,13.9
2016-07-02T06:19:44.093Z,13.99
2016-07-02T06:20:44.135Z,14.05
2016-07-02T06:21:44.140Z,13.93
2016-07-02T06:22:44.180Z,14.01
2016-07-02T06:23:44.205Z,14.03
2016-07-02T06:24:44.254Z,14.01
2016-07-02T06:25:44.104Z,14.06
2016-07-02T06:26:44.093Z,14.06
2016-07-02T06:27:44.235Z,14.02
2016-07-02T06:28:44.220Z,14.01
2016-07-02T06:29:44.231Z,14.01
2016-07-02T06:30:44.200Z,14.03
2016-07-02T06:31:44.186Z,14.11
2016-07-02T06:32:44.221Z,14.13
2016-07-02T06:33:44.188Z,14.19
2016-07-02T06:34:44.177Z,14.21
2016-07-02T06:35:44.109Z,14.24
2016-07-02T06:36:44.150Z,14.2
2016-07-02T06:37:44.290Z,14.2
2016-07-02T06:38:44.100Z,14.2
2016-07-02T06:39:44.248Z,14.33
2016-07-02T06:40:44.275Z,14.16
2016-07-02T06:41:44.229Z,14.31
2016-07-02T06:42:44.193Z,14.28
2016-07-02T06:43:44.265Z,14.2
2016-07-02T06:44:44.164Z,14.21
2016-07-02T06:45:44.186Z,14.24
2016-07-02T06:46:44.196Z,14.2
2016-07-02T06:47:44.183Z,14.23
2016-07-02T06:48:44.203Z,14.27
2016-07-02T06:49:44.273Z,14.36
2016-07-02T06:50:44.229Z,14.36
2016-07-02T06:51:44.196Z,14.19
2016-07-02T06:52:44.246Z,14.39
2016-07-02T06:53:44.219Z,14.44
2016-07-02T06:54:44.237Z,14.39
2016-07-02T06:55:44.267Z,14.36
2016-07-02T06:56:44.291Z,14.38
2016-07-02T06:57:44.395Z,14.39
2016-07-02T06:58:44.301Z,14.39
2016-07-02T06:59:44.242Z,14.46
2016-07-02T07:00:44.302Z,14.36
2016-07-02T07:01:44.220Z,14.45
2016-07-02T07:02:44.301Z,14.41
2016-07-02T07:03:44.245Z,14.42
2016-07-02T07:04:44.272Z,14.41
2016-07-02T07:05:44.271Z,14.39
2016-07-02T07:06:44.228Z,14.45
2016-07-02T07:07:44.275Z,14.36
2016-07-02T07:08:44.229Z,14.31
2016-07-02T07:09:44.269Z,14.41
2016-07-02T07:10:44.323Z,14.45
2016-07-02T07:11:44.290Z,14.42
2016-07-02T07:12:44.190Z,14.39
2016-07-02T07:13:44.303Z,14.48
2016-07-02T07:14:44.342Z,14.45
2016-07-02T07:15:44.238Z,14.39
2016-07-02T07:16:44.229Z,14.41
2016-07-02T07:17:44.244Z,14.51
2016-07-02T07:18:44.238Z,14.38
2016-07-02T07:19:44.371Z,14.46
2016-07-02T07:20:44.303Z,14.38
2016-07-02T07:21:44.295Z,14.56
2016-07-02T07:22:44.312Z,14.49
2016-07-02T07:23:44.364Z,14.46
2016-07-02T07:24:47.753Z,14.42
2016-07-02T07:25:44.314Z,14.46
2016-07-02T07:26:44.296Z,14.39
2016-07-02T07:27:44.367Z,14.51
2016-07-02T07:28:44.455Z,14.52
2016-07-02T07:29:44.316Z,14.49
2016-07-02T07:30:44.352Z,14.48
2016-07-02T07:31:44.372Z,14.49
2016-07-02T07:32:44.320Z,14.56
2016-07-02T07:33:44.338Z,14.61
2016-07-02T07:34:44.410Z,14.53
2016-07-02T07:35:44.341Z,14.56
2016-07-02T07:36:44.345Z,14.53
2016-07-02T07:37:44.347Z,14.51
2016-07-02T07:38:44.245Z,14.51
2016-07-02T07:39:44.282Z,14.66
2016-07-02T07:40:44.352Z,14.63
2016-07-02T07:41:44.396Z,14.59
2016-07-02T07:42:44.327Z,14.7
2016-07-02T07:43:44.408Z,14.67
2016-07-02T07:56:45.255Z,14.71
2016-07-02T07:56:52.260Z,14.79
2016-07-02T07:57:52.294Z,14.52
2016-07-02T07:58:52.258Z,14.6
2016-07-02T07:59:52.350Z,14.79
2016-07-02T08:00:52.274Z,14.8
2016-07-02T08:01:52.265Z,14.82
2016-07-02T08:02:52.357Z,14.71
2016-07-02T08:03:52.276Z,14.74
2016-07-02T08:04:52.315Z,14.82
2016-07-02T08:05:52.360Z,14.75
2016-07-02T08:06:52.356Z,14.75
2016-07-02T08:07:52.334Z,14.85
2016-07-02T08:08:52.363Z,14.74
2016-07-02T08:09:52.365Z,14.75
2016-07-02T08:10:52.364Z,14.79
2016-07-02T08:11:52.242Z,14.85
2016-07-02T08:12:52.209Z,14.79
2016-07-02T08:13:52.328Z,14.85
2016-07-02T08:14:52.334Z,14.77
2016-07-02T08:15:52.274Z,14.69
2016-07-02T08:16:52.253Z,14.79
2016-07-02T08:17:52.259Z,14.86
2016-07-02T08:18:52.267Z,14.85
2016-07-02T08:19:52.387Z,14.8
2016-07-02T08:20:52.371Z,14.94
2016-07-02T08:21:52.350Z,15
2016-07-02T08:22:52.399Z,15
2016-07-02T08:23:52.374Z,15.04
2016-07-02T08:24:52.385Z,15.08
2016-07-02T08:25:52.316Z,14.94
2016-07-02T08:26:52.361Z,14.95
2016-07-02T08:27:52.315Z,14.95
2016-07-02T08:40:53.282Z,15.37
2016-07-02T08:41:00.248Z,15.35
2016-07-02T08:42:00.163Z,15.44
2016-07-02T08:43:00.293Z,15.56
2016-07-02T08:44:00.211Z,15.68
2016-07-02T08:45:00.291Z,15.6
2016-07-02T08:46:00.190Z,15.91
2016-07-02T08:47:00.284Z,16.08
2016-07-02T08:48:00.266Z,15.92
2016-07-02T08:49:00.277Z,15.91
2016-07-02T08:50:00.305Z,15.84
2016-07-02T08:51:00.299Z,15.92
2016-07-02T08:52:00.343Z,16.18
2016-07-02T08:53:00.206Z,16.39
2016-07-02T08:54:00.240Z,16.27
2016-07-02T08:55:00.242Z,16.25
2016-07-02T08:56:00.277Z,16.45
2016-07-02T08:57:00.315Z,16.76
2016-07-02T08:58:00.297Z,17.09
2016-07-02T08:59:00.216Z,17.05
2016-07-02T09:00:00.211Z,17.05
2016-07-02T09:01:00.223Z,16.67
2016-07-02T09:02:00.261Z,16.72
2016-07-02T09:03:00.284Z,16.57
2016-07-02T09:04:00.192Z,16.49
2016-07-02T09:05:00.385Z,16.62
2016-07-02T09:06:00.306Z,16.58
2016-07-02T09:07:00.244Z,16.52
2016-07-02T09:08:00.243Z,16.42
2016-07-02T09:09:00.324Z,16.17
2016-07-02T09:10:00.296Z,16.3
2016-07-02T09:11:00.323Z,16.22
2016-07-02T09:12:00.466Z,16.4
2016-07-02T09:13:00.335Z,16.49
2016-07-02T09:14:00.300Z,16.44
2016-07-02T09:15:00.316Z,16.37
2016-07-02T09:16:00.296Z,16.25
2016-07-02T09:17:00.262Z,16.18
2016-07-02T09:18:00.297Z,16.32
2016-07-02T09:19:00.291Z,16.36
2016-07-02T09:20:00.365Z,16.14
2016-07-02T09:21:00.339Z,15.93
2016-07-02T09:22:00.418Z,16.17
2016-07-02T09:23:00.339Z,16.22
2016-07-02T09:24:00.509Z,16.11
2016-07-02T09:25:00.385Z,16.1
2016-07-02T09:26:00.451Z,16.1
2016-07-02T09:27:00.404Z,16.07
2016-07-02T09:28:00.405Z,16
2016-07-02T09:29:00.462Z,15.95
2016-07-02T09:30:00.352Z,16.04
2016-07-02T09:31:00.342Z,16.08
2016-07-02T09:32:00.480Z,16.11
2016-07-02T09:33:00.320Z,16.02
2016-07-02T09:34:00.376Z,16.11
2016-07-02T09:35:00.459Z,16.04
2016-07-02T09:36:00.445Z,16.16
2016-07-02T09:37:00.430Z,16
2016-07-02T09:38:00.315Z,16.13
2016-07-02T09:39:00.354Z,16.06
2016-07-02T09:40:00.407Z,16.08
2016-07-02T09:41:00.375Z,15.95
2016-07-02T09:42:00.352Z,16.06
2016-07-02T09:43:00.400Z,16.13
2016-07-02T09:44:00.356Z,16.34
2016-07-02T09:45:00.487Z,16.3
2016-07-02T09:46:00.385Z,16.45
2016-07-02T09:47:00.695Z,16.8
2016-07-02T09:48:00.419Z,17.12
2016-07-02T09:49:00.364Z,17.06
2016-07-02T09:50:00.394Z,16.95
2016-07-02T09:51:00.326Z,16.85
2016-07-02T09:52:00.406Z,16.81
2016-07-02T09:53:00.433Z,16.8
2016-07-02T09:54:00.407Z,16.63
2016-07-02T09:55:00.346Z,16.44
2016-07-02T09:56:00.375Z,16.54
2016-07-02T09:57:00.486Z,16.87
2016-07-02T09:58:00.487Z,16.77
2016-07-02T09:59:00.458Z,16.9
2016-07-02T10:00:00.428Z,16.9
2016-07-02T10:01:00.521Z,17.2
2016-07-02T10:02:00.425Z,17
2016-07-02T10:03:00.504Z,17.03
2016-07-02T10:05:15.297Z,17.03
2016-07-02T10:06:15.377Z,16.91
2016-07-02T10:07:15.366Z,17.03
2016-07-02T10:08:15.376Z,17.1
2016-07-02T10:09:15.380Z,17.15
2016-07-02T10:10:15.314Z,17.25
2016-07-02T10:11:15.329Z,17.5
2016-07-02T10:12:15.398Z,17.68
2016-07-02T10:13:15.354Z,17.8
2016-07-02T10:14:15.399Z,17.73
2016-07-02T10:15:15.494Z,18.06
2016-07-02T10:16:15.264Z,18.29
2016-07-02T10:17:15.322Z,18.23
2016-07-02T10:18:15.387Z,18.34
2016-07-02T10:19:15.316Z,18.5
2016-07-02T10:20:15.402Z,18.82
2016-07-02T10:21:15.340Z,19.12
2016-07-02T10:22:15.268Z,19.1
2016-07-02T10:23:15.415Z,18.86
2016-07-02T10:24:15.328Z,18.78
2016-07-02T10:25:15.417Z,19.07
2016-07-02T10:26:15.403Z,18.87
2016-07-02T10:27:15.380Z,18.71
2016-07-02T10:28:15.385Z,18.97
2016-07-02T10:29:15.565Z,19.57
2016-07-02T10:30:15.366Z,19.5
2016-07-02T10:31:15.354Z,19.45
2016-07-02T10:32:15.441Z,19.25
2016-07-02T10:33:15.437Z,19.17
2016-07-02T10:34:15.387Z,19.49
2016-07-02T10:35:15.401Z,19.93
2016-07-02T10:36:15.355Z,19.75
2016-07-02T10:37:15.382Z,19.42
2016-07-02T10:38:15.466Z,18.81
2016-07-02T10:39:15.298Z,18.82
2016-07-02T10:40:15.323Z,19.09
2016-07-02T10:41:15.469Z,19.16
2016-07-02T10:42:15.452Z,19.16
2016-07-02T10:43:15.399Z,19.78
2016-07-02T10:44:15.387Z,20.37
2016-07-02T10:45:15.458Z,20.4
2016-07-02T10:46:15.472Z,20.23
2016-07-02T10:47:15.382Z,19.7
2016-07-02T10:48:15.486Z,19.32
2016-07-02T10:49:15.484Z,19.56
2016-07-02T10:50:15.433Z,19.34
2016-07-02T10:51:15.426Z,18.9
2016-07-02T10:52:15.517Z,18.96
2016-07-02T10:53:15.467Z,18.93
2016-07-02T10:54:15.475Z,19.09
2016-07-02T10:55:15.483Z,19.07
2016-07-02T10:56:15.410Z,18.91
2016-07-02T10:57:15.494Z,18.71
2016-07-02T10:58:15.506Z,18.93
2016-07-02T10:59:15.509Z,18.78
2016-07-02T11:00:15.426Z,18.75
2016-07-02T11:01:15.430Z,18.69
2016-07-02T11:02:15.464Z,18.61
2016-07-02T11:03:15.467Z,18.45
2016-07-02T11:04:15.482Z,18.36
2016-07-02T11:05:15.419Z,18.26
2016-07-02T11:06:15.471Z,18.19
2016-07-02T11:07:15.420Z,18.23
2016-07-02T11:08:15.538Z,18.14
2016-07-02T11:09:15.460Z,18.17
2016-07-02T11:10:15.510Z,18.17
2016-07-02T11:11:15.405Z,18.17
2016-07-02T11:12:15.458Z,18.14
2016-07-02T11:13:15.478Z,17.96
2016-07-02T11:14:15.520Z,18.11
2016-07-02T11:15:15.535Z,18.47
2016-07-02T11:16:15.564Z,18.66
2016-07-02T11:17:15.514Z,18.72
2016-07-02T11:18:15.635Z,18.72
2016-07-02T11:19:15.596Z,18.65
2016-07-02T11:20:15.501Z,18.53
2016-07-02T11:21:15.503Z,18.6
2016-07-02T11:22:15.587Z,18.74
2016-07-02T11:23:15.513Z,18.63
2016-07-02T11:24:15.558Z,18.49
2016-07-02T11:25:15.539Z,18.35
2016-07-02T11:26:15.507Z,18.23
2016-07-02T11:27:15.491Z,18.11
2016-07-02T11:28:15.550Z,18.16
2016-07-02T11:29:15.555Z,18.19
2016-07-02T11:30:15.470Z,18.13
2016-07-02T11:31:15.570Z,18.03
2016-07-02T11:32:15.457Z,18.06
2016-07-02T11:33:15.521Z,17.79
2016-07-02T11:34:15.545Z,17.74
2016-07-02T11:35:15.481Z,17.54
2016-07-02T11:36:15.580Z,17.57
2016-07-02T11:41:34.278Z,17.71
2016-07-02T11:41:41.242Z,17.63
2016-07-02T11:42:41.271Z,17.81
2016-07-02T11:43:41.235Z,18.11
2016-07-02T11:44:41.357Z,18.34
2016-07-02T11:45:41.269Z,18.27
2016-07-02T11:46:41.279Z,18.41
2016-07-02T11:47:41.260Z,18.65
2016-07-02T11:48:41.228Z,18.96
2016-07-02T11:49:41.153Z,19.17
2016-07-02T11:50:41.196Z,19.34
2016-07-02T11:51:41.181Z,19.85
2016-07-02T11:52:41.333Z,19.78
2016-07-02T11:53:41.438Z,19.74
2016-07-02T11:54:41.249Z,19.87
2016-07-02T11:55:41.293Z,20.1
2016-07-02T11:56:41.212Z,20.56
2016-07-02T11:57:41.270Z,20.2
2016-07-02T11:58:41.274Z,20.54
2016-07-02T11:59:41.818Z,19.9
2016-07-02T12:00:41.353Z,19.87
2016-07-02T12:01:41.265Z,19.92
2016-07-02T12:02:41.229Z,19.5
2016-07-02T12:03:41.266Z,19.52
2016-07-02T12:04:41.376Z,19.65
2016-07-02T12:05:41.249Z,20.01
2016-07-02T12:06:41.413Z,20.04
2016-07-02T12:07:41.317Z,20.02
2016-07-02T12:08:41.389Z,19.97
2016-07-02T12:09:41.252Z,20.18
2016-07-02T12:10:41.428Z,20.71
2016-07-02T12:11:41.244Z,20.97
2016-07-02T12:12:41.316Z,20.35
2016-07-02T12:13:41.300Z,20
2016-07-02T12:14:41.345Z,19.86
2016-07-02T12:15:41.360Z,19.83
2016-07-02T12:16:41.275Z,19.9
2016-07-02T12:17:41.377Z,20.04
2016-07-02T12:18:41.316Z,19.74
2016-07-02T12:19:41.406Z,20.01
2016-07-02T12:20:41.362Z,19.83
2016-07-02T12:21:41.373Z,19.56
2016-07-02T12:22:41.380Z,19.5
2016-07-02T12:23:41.408Z,19.56
2016-07-02T12:24:41.483Z,19.63
2016-07-02T12:25:41.319Z,20.16
2016-07-02T12:26:41.474Z,20.01
2016-07-02T12:27:41.323Z,20.11
2016-07-02T12:28:41.438Z,19.61
2016-07-02T12:29:41.425Z,19.6
2016-07-02T12:30:41.403Z,20.01
2016-07-02T12:31:41.358Z,19.47
2016-07-02T12:32:41.271Z,20.01
2016-07-02T12:33:41.332Z,19.89
2016-07-02T12:34:41.460Z,19.37
2016-07-02T12:35:41.365Z,19.43
2016-07-02T12:36:41.400Z,19.53
2016-07-02T12:37:41.277Z,19.9
2016-07-02T12:38:41.439Z,19.67
2016-07-02T12:39:41.401Z,19.38
2016-07-02T12:40:41.464Z,19.52
2016-07-02T12:41:41.437Z,19.79
2016-07-02T12:42:41.384Z,19.75
2016-07-02T12:43:41.406Z,20.22
2016-07-02T12:44:41.573Z,20.08
2016-07-02T12:45:41.322Z,19.65
2016-07-02T12:46:41.411Z,19.85
2016-07-02T12:47:41.363Z,20.61
2016-07-02T12:48:41.505Z,20.67
2016-07-02T12:49:41.395Z,20.67
2016-07-02T12:50:41.462Z,20.26
2016-07-02T12:51:41.386Z,20.54
2016-07-02T12:52:41.395Z,20.26
2016-07-02T12:53:41.431Z,20.08
2016-07-02T12:54:41.407Z,20.4
2016-07-02T12:55:41.459Z,20.27
2016-07-02T12:56:41.483Z,20.4
2016-07-02T12:57:41.387Z,21.09
2016-07-02T12:58:41.450Z,21.3
2016-07-02T12:59:41.570Z,21.38
2016-07-02T13:00:41.528Z,21.51
2016-07-02T13:01:41.440Z,20.56
2016-07-02T13:02:41.453Z,20.4
2016-07-02T13:03:41.363Z,20.6
2016-07-02T13:04:41.460Z,20.79
2016-07-02T13:05:41.443Z,20.53
2016-07-02T13:06:41.487Z,19.97
2016-07-02T13:07:41.527Z,20.49
2016-07-02T13:08:41.395Z,20.34
2016-07-02T13:09:41.511Z,20.18
2016-07-02T13:10:41.484Z,19.74
2016-07-02T13:11:41.578Z,20.27
2016-07-02T13:12:41.473Z,20.57
2016-07-02T13:13:41.484Z,20.32
2016-07-02T13:14:41.469Z,20.42
2016-07-02T13:15:41.495Z,21.16
2016-07-02T13:16:41.489Z,21.09
2016-07-02T13:17:41.523Z,21.15
2016-07-02T13:18:41.497Z,20.83
2016-07-02T13:19:41.571Z,20.26
2016-07-02T13:20:41.496Z,20.38
2016-07-02T13:21:41.418Z,20.26
2016-07-02T13:22:41.501Z,20.01
2016-07-02T13:23:41.488Z,19.68
2016-07-02T13:24:41.514Z,19.55
2016-07-02T13:25:41.550Z,19.06
2016-07-02T13:26:41.511Z,18.56
2016-07-02T13:27:41.478Z,18.27
2016-07-02T13:28:41.524Z,18.2
2016-07-02T13:29:41.505Z,18.24
2016-07-02T13:30:41.486Z,17.86
2016-07-02T13:31:41.553Z,17.62
2016-07-02T13:32:41.538Z,17.73
2016-07-02T13:33:41.553Z,17.6
2016-07-02T13:34:41.572Z,17.79
2016-07-02T13:35:41.566Z,17.98
2016-07-02T13:36:41.589Z,17.94
2016-07-02T13:37:41.499Z,17.63
2016-07-02T13:38:41.552Z,17.63
2016-07-02T13:39:41.815Z,18.19
2016-07-02T13:40:41.496Z,18.79
2016-07-02T13:41:41.495Z,19.16
2016-07-02T13:42:41.580Z,19.28
2016-07-02T13:43:41.540Z,19.49
2016-07-02T13:44:41.625Z,19.71
2016-07-02T13:45:41.514Z,19.85
2016-07-02T13:46:41.542Z,20.2
2016-07-02T13:47:41.638Z,19.79
2016-07-02T13:48:41.538Z,19.74
2016-07-02T13:49:41.549Z,19.8
2016-07-02T13:50:41.506Z,20.04
2016-07-02T13:51:41.468Z,20.3